Time,TemperatureF,DewpointF,PressureIn,WindDirection,WindDirectionDegrees,WindSpeedMPH,WindSpeedGustMPH,Humidity,HourlyPrecipIn,Conditions,Clouds,dailyrainin,SoftwareType,DateUTC
2013-08-09 00:02:00,63.0,57.0,-100.00,North,0,2.0,5.0,81,-99.99,,,-99.99,,2013-08-09 05:02:00,
2013-08-09 00:11:00,62.0,57.0,-100.00,North,0,1.0,1.0,83,-99.99,,,-99.99,,2013-08-09 05:11:00,
2013-08-09 00:22:00,62.0,57.0,-100.00,North,0,1.0,1.0,83,-99.99,,,-99.99,,2013-08-09 05:22:00,
2013-08-09 00:32:00,62.0,57.0,-100.00,North,0,0.0,1.0,85,-99.99,,,-99.99,,2013-08-09 05:32:00,
2013-08-09 00:43:00,61.0,57.0,-100.00,North,0,1.0,1.0,86,-99.99,,,-99.99,,2013-08-09 05:43:00,
2013-08-09 00:52:00,61.0,57.0,-100.00,North,0,1.0,1.0,86,-99.99,,,-99.99,,2013-08-09 05:52:00,
2013-08-09 01:01:00,61.0,57.0,-100.00,North,0,0.0,0.0,86,-99.99,,,-99.99,,2013-08-09 06:01:00,
2013-08-09 01:11:00,62.0,57.0,-100.00,North,0,0.0,0.0,84,-99.99,,,-99.99,,2013-08-09 06:11:00,
2013-08-09 01:22:00,62.0,57.0,-100.00,North,0,0.0,0.0,84,-99.99,,,-99.99,,2013-08-09 06:22:00,
2013-08-09 01:43:00,62.0,56.0,-100.00,North,0,0.0,0.0,82,-99.99,,,-99.99,,2013-08-09 06:43:00,
2013-08-09 01:52:00,62.0,56.0,-100.00,North,0,0.0,0.0,82,-99.99,,,-99.99,,2013-08-09 06:52:00,
2013-08-09 02:01:00,61.0,56.0,-100.00,North,0,0.0,0.0,84,-99.99,,,-99.99,,2013-08-09 07:01:00,
2013-08-09 02:12:00,61.0,56.0,-100.00,North,0,0.0,0.0,85,-99.99,,,-99.99,,2013-08-09 07:12:00,
2013-08-09 02:22:00,61.0,56.0,-100.00,North,0,0.0,0.0,85,-99.99,,,-99.99,,2013-08-09 07:22:00,
2013-08-09 02:33:00,60.0,56.0,-100.00,North,0,0.0,0.0,88,-99.99,,,-99.99,,2013-08-09 07:33:00,
2013-08-09 02:43:00,59.0,56.0,-100.00,North,0,0.0,0.0,90,-99.99,,,-99.99,,2013-08-09 07:43:00,
2013-08-09 02:53:00,59.0,56.0,-100.00,North,0,0.0,0.0,90,-99.99,,,-99.99,,2013-08-09 07:53:00,
2013-08-09 03:12:00,59.0,56.0,-100.00,North,0,0.0,0.0,91,-99.99,,,-99.99,,2013-08-09 08:12:00,
2013-08-09 03:22:00,59.0,56.0,-100.00,North,0,0.0,0.0,91,-99.99,,,-99.99,,2013-08-09 08:22:00,
2013-08-09 03:32:00,59.0,56.0,-100.00,North,0,0.0,0.0,90,-99.99,,,-99.99,,2013-08-09 08:32:00,
2013-08-09 03:43:00,59.0,56.0,-100.00,North,0,0.0,0.0,91,-99.99,,,-99.99,,2013-08-09 08:43:00,
2013-08-09 03:53:00,59.0,56.0,-100.00,North,0,0.0,0.0,91,-99.99,,,-99.99,,2013-08-09 08:53:00,
2013-08-09 04:02:00,58.0,56.0,-100.00,North,0,0.0,0.0,93,-99.99,,,-99.99,,2013-08-09 09:02:00,
2013-08-09 04:12:00,57.0,55.0,-100.00,North,0,0.0,0.0,93,-99.99,,,-99.99,,2013-08-09 09:12:00,
2013-08-09 04:22:00,57.0,55.0,-100.00,North,0,0.0,0.0,93,-99.99,,,-99.99,,2013-08-09 09:22:00,
2013-08-09 04:32:00,57.0,55.0,-100.00,North,0,1.0,1.0,94,-99.99,,,-99.99,,2013-08-09 09:32:00,
2013-08-09 04:43:00,58.0,55.0,-100.00,North,0,0.0,1.0,92,-99.99,,,-99.99,,2013-08-09 09:43:00,
2013-08-09 04:52:00,58.0,55.0,-100.00,North,0,0.0,1.0,92,-99.99,,,-99.99,,2013-08-09 09:52:00,
2013-08-09 05:01:00,57.0,55.0,-100.00,North,0,1.0,1.0,92,-99.99,,,-99.99,,2013-08-09 10:01:00,
2013-08-09 05:12:00,57.0,55.0,-100.00,North,0,1.0,4.0,92,-99.99,,,-99.99,,2013-08-09 10:12:00,
2013-08-09 05:22:00,57.0,55.0,-100.00,North,0,1.0,4.0,92,-99.99,,,-99.99,,2013-08-09 10:22:00,
2013-08-09 05:32:00,57.0,54.0,-100.00,North,0,3.0,4.0,91,-99.99,,,-99.99,,2013-08-09 10:32:00,
2013-08-09 05:43:00,57.0,55.0,-100.00,North,0,1.0,1.0,92,-99.99,,,-99.99,,2013-08-09 10:43:00,
2013-08-09 05:53:00,57.0,55.0,-100.00,North,0,1.0,1.0,92,-99.99,,,-99.99,,2013-08-09 10:53:00,
2013-08-09 06:11:00,57.0,55.0,-100.00,North,0,0.0,1.0,91,-99.99,,,-99.99,,2013-08-09 11:11:00,
2013-08-09 07:43:00,63.0,52.0,-100.00,North,0,1.0,2.0,67,-99.99,,,-99.99,,2013-08-09 12:43:00,
2013-08-09 07:52:00,63.0,52.0,-100.00,North,0,1.0,2.0,67,-99.99,,,-99.99,,2013-08-09 12:52:00,
2013-08-09 08:12:00,66.0,53.0,-100.00,North,0,5.0,7.0,63,-99.99,,,-99.99,,2013-08-09 13:12:00,
2013-08-09 08:23:00,66.0,53.0,-100.00,North,0,5.0,7.0,63,-99.99,,,-99.99,,2013-08-09 13:23:00,
2013-08-09 08:32:00,67.0,53.0,-100.00,North,0,4.0,6.0,61,-99.99,,,-99.99,,2013-08-09 13:32:00,
2013-08-09 08:43:00,69.0,54.0,-100.00,North,0,4.0,6.0,60,-99.99,,,-99.99,,2013-08-09 13:43:00,
2013-08-09 08:52:00,69.0,54.0,-100.00,North,0,4.0,6.0,60,-99.99,,,-99.99,,2013-08-09 13:52:00,
2013-08-09 09:02:00,70.0,55.0,-100.00,North,0,3.0,6.0,58,-99.99,,,-99.99,,2013-08-09 14:02:00,
2013-08-09 09:11:00,71.0,51.0,-100.00,North,0,5.0,9.0,50,-99.99,,,-99.99,,2013-08-09 14:11:00,
2013-08-09 09:22:00,71.0,51.0,-100.00,North,0,5.0,9.0,50,-99.99,,,-99.99,,2013-08-09 14:22:00,
2013-08-09 09:33:00,72.0,53.0,-100.00,North,0,4.0,8.0,52,-99.99,,,-99.99,,2013-08-09 14:33:00,
2013-08-09 09:43:00,73.0,54.0,-100.00,North,0,7.0,9.0,52,-99.99,,,-99.99,,2013-08-09 14:43:00,
2013-08-09 09:53:00,73.0,54.0,-100.00,North,0,7.0,9.0,52,-99.99,,,-99.99,,2013-08-09 14:53:00,
2013-08-09 10:11:00,74.0,56.0,-100.00,North,0,5.0,7.0,54,-99.99,,,-99.99,,2013-08-09 15:11:00,
2013-08-09 10:22:00,74.0,56.0,-100.00,North,0,5.0,7.0,54,-99.99,,,-99.99,,2013-08-09 15:22:00,
2013-08-09 10:33:00,75.0,57.0,-100.00,North,0,5.0,8.0,54,-99.99,,,-99.99,,2013-08-09 15:33:00,
2013-08-09 10:44:00,75.0,57.0,-100.00,North,0,6.0,9.0,53,-99.99,,,-99.99,,2013-08-09 15:44:00,
2013-08-09 10:53:00,75.0,57.0,-100.00,North,0,6.0,9.0,53,-99.99,,,-99.99,,2013-08-09 15:53:00,
2013-08-09 11:11:00,77.0,58.0,-100.00,North,0,7.0,9.0,53,-99.99,,,-99.99,,2013-08-09 16:11:00,
2013-08-09 11:22:00,77.0,58.0,-100.00,North,0,7.0,9.0,53,-99.99,,,-99.99,,2013-08-09 16:22:00,
2013-08-09 11:32:00,77.0,60.0,-100.00,North,5,6.0,11.0,55,-99.99,,,-99.99,,2013-08-09 16:32:00,
2013-08-09 11:43:00,77.0,60.0,-100.00,North,0,6.0,11.0,57,-99.99,,,-99.99,,2013-08-09 16:43:00,
2013-08-09 11:53:00,77.0,60.0,-100.00,North,0,6.0,11.0,57,-99.99,,,-99.99,,2013-08-09 16:53:00,
2013-08-09 12:11:00,78.0,61.0,-100.00,North,0,8.0,11.0,57,-99.99,,,-99.99,,2013-08-09 17:11:00,
2013-08-09 12:22:00,78.0,61.0,-100.00,North,0,8.0,11.0,57,-99.99,,,-99.99,,2013-08-09 17:22:00,
2013-08-09 12:33:00,78.0,62.0,-100.00,North,0,7.0,11.0,57,-99.99,,,-99.99,,2013-08-09 17:33:00,
2013-08-09 12:43:00,79.0,63.0,-100.00,North,0,5.0,11.0,57,-99.99,,,-99.99,,2013-08-09 17:43:00,
2013-08-09 12:52:00,79.0,63.0,-100.00,North,0,5.0,11.0,57,-99.99,,,-99.99,,2013-08-09 17:52:00,
2013-08-09 13:01:00,80.0,62.0,-100.00,North,0,5.0,11.0,54,-99.99,,,-99.99,,2013-08-09 18:01:00,
2013-08-09 13:11:00,80.0,62.0,-100.00,North,0,9.0,13.0,53,-99.99,,,-99.99,,2013-08-09 18:11:00,
2013-08-09 13:22:00,80.0,62.0,-100.00,North,0,9.0,13.0,53,-99.99,,,-99.99,,2013-08-09 18:22:00,
2013-08-09 13:32:00,80.0,62.0,-100.00,North,0,6.0,14.0,54,-99.99,,,-99.99,,2013-08-09 18:32:00,
2013-08-09 13:43:00,80.0,62.0,-100.00,North,0,7.0,14.0,55,-99.99,,,-99.99,,2013-08-09 18:43:00,
2013-08-09 13:53:00,80.0,62.0,-100.00,North,0,7.0,14.0,55,-99.99,,,-99.99,,2013-08-09 18:53:00,
2013-08-09 14:11:00,81.0,62.0,-100.00,North,0,5.0,11.0,52,-99.99,,,-99.99,,2013-08-09 19:11:00,
2013-08-09 14:22:00,81.0,62.0,-100.00,North,0,5.0,11.0,52,-99.99,,,-99.99,,2013-08-09 19:22:00,
2013-08-09 14:32:00,81.0,62.0,-100.00,North,0,5.0,11.0,52,-99.99,,,-99.99,,2013-08-09 19:32:00,
2013-08-09 14:43:00,81.0,62.0,-100.00,North,0,5.0,11.0,52,-99.99,,,-99.99,,2013-08-09 19:43:00,
2013-08-09 15:11:00,81.0,63.0,-100.00,North,0,6.0,12.0,55,-99.99,,,-99.99,,2013-08-09 20:11:00,
2013-08-09 15:22:00,81.0,63.0,-100.00,North,0,6.0,12.0,55,-99.99,,,-99.99,,2013-08-09 20:22:00,
2013-08-09 15:32:00,82.0,63.0,-100.00,North,5,7.0,14.0,54,-99.99,,,-99.99,,2013-08-09 20:32:00,
2013-08-09 15:43:00,81.0,62.0,-100.00,North,0,5.0,13.0,53,-99.99,,,-99.99,,2013-08-09 20:43:00,
2013-08-09 15:52:00,81.0,62.0,-100.00,North,0,5.0,13.0,53,-99.99,,,-99.99,,2013-08-09 20:52:00,
2013-08-09 16:01:00,80.0,63.0,-100.00,North,0,6.0,9.0,56,-99.99,,,-99.99,,2013-08-09 21:01:00,
2013-08-09 16:12:00,81.0,63.0,-100.00,North,0,7.0,11.0,55,-99.99,,,-99.99,,2013-08-09 21:12:00,
2013-08-09 16:22:00,81.0,63.0,-100.00,North,0,7.0,11.0,55,-99.99,,,-99.99,,2013-08-09 21:22:00,
2013-08-09 16:43:00,81.0,64.0,-100.00,North,0,9.0,13.0,57,-99.99,,,-99.99,,2013-08-09 21:43:00,
2013-08-09 16:52:00,81.0,64.0,-100.00,North,0,9.0,13.0,57,-99.99,,,-99.99,,2013-08-09 21:52:00,
2013-08-09 17:11:00,79.0,64.0,-100.00,North,0,6.0,11.0,60,-99.99,,,-99.99,,2013-08-09 22:11:00,
2013-08-09 17:22:00,79.0,64.0,-100.00,North,0,6.0,11.0,60,-99.99,,,-99.99,,2013-08-09 22:22:00,
2013-08-09 17:32:00,79.0,64.0,-100.00,North,0,7.0,13.0,61,-99.99,,,-99.99,,2013-08-09 22:32:00,
2013-08-09 17:42:00,80.0,64.0,-100.00,North,0,7.0,11.0,58,-99.99,,,-99.99,,2013-08-09 22:42:00,
2013-08-09 17:52:00,80.0,64.0,-100.00,North,0,7.0,11.0,58,-99.99,,,-99.99,,2013-08-09 22:52:00,
2013-08-09 18:11:00,78.0,65.0,-100.00,North,0,4.0,13.0,63,-99.99,,,-99.99,,2013-08-09 23:11:00,
2013-08-09 18:22:00,78.0,65.0,-100.00,North,0,4.0,13.0,63,-99.99,,,-99.99,,2013-08-09 23:22:00,
2013-08-09 18:32:00,78.0,65.0,-100.00,North,0,5.0,8.0,66,-99.99,,,-99.99,,2013-08-09 23:32:00,
2013-08-09 18:43:00,77.0,66.0,-100.00,North,0,5.0,9.0,69,-99.99,,,-99.99,,2013-08-09 23:43:00,
2013-08-09 18:52:00,77.0,66.0,-100.00,North,0,5.0,9.0,69,-99.99,,,-99.99,,2013-08-09 23:52:00,
2013-08-09 19:01:00,74.0,67.0,-100.00,North,0,11.0,19.0,78,-99.99,,,-99.99,,2013-08-10 00:01:00,
2013-08-09 19:11:00,72.0,68.0,-100.00,North,0,1.0,9.0,85,-99.99,,,-99.99,,2013-08-10 00:11:00,
2013-08-09 19:22:00,72.0,68.0,-100.00,North,0,1.0,9.0,85,-99.99,,,-99.99,,2013-08-10 00:22:00,
2013-08-09 19:53:00,73.0,68.0,-100.00,North,0,4.0,7.0,84,-99.99,,,-99.99,,2013-08-10 00:53:00,
2013-08-09 20:01:00,72.0,68.0,-100.00,North,0,1.0,6.0,86,-99.99,,,-99.99,,2013-08-10 01:01:00,
2013-08-09 20:11:00,71.0,68.0,-100.00,North,0,3.0,5.0,89,-99.99,,,-99.99,,2013-08-10 01:11:00,
2013-08-09 20:22:00,71.0,68.0,-100.00,North,0,3.0,5.0,89,-99.99,,,-99.99,,2013-08-10 01:22:00,
2013-08-09 20:32:00,71.0,68.0,-100.00,North,0,1.0,5.0,89,-99.99,,,-99.99,,2013-08-10 01:32:00,
2013-08-09 20:42:00,70.0,68.0,-100.00,North,5,1.0,6.0,91,-99.99,,,-99.99,,2013-08-10 01:42:00,
2013-08-09 20:52:00,70.0,68.0,-100.00,North,5,1.0,6.0,91,-99.99,,,-99.99,,2013-08-10 01:52:00,
2013-08-09 21:03:00,70.0,68.0,-100.00,North,0,2.0,5.0,93,-99.99,,,-99.99,,2013-08-10 02:03:00,
2013-08-09 21:11:00,69.0,67.0,-100.00,North,0,4.0,6.0,93,-99.99,,,-99.99,,2013-08-10 02:11:00,
2013-08-09 21:21:00,69.0,67.0,-100.00,North,0,4.0,6.0,93,-99.99,,,-99.99,,2013-08-10 02:21:00,
2013-08-09 21:32:00,69.0,67.0,-100.00,North,0,4.0,5.0,93,-99.99,,,-99.99,,2013-08-10 02:32:00,
2013-08-09 21:42:00,68.0,67.0,-100.00,North,0,6.0,9.0,94,-99.99,,,-99.99,,2013-08-10 02:42:00,
2013-08-09 21:52:00,68.0,67.0,-100.00,North,0,6.0,9.0,94,-99.99,,,-99.99,,2013-08-10 02:52:00,
2013-08-09 22:11:00,69.0,67.0,-100.00,North,5,6.0,9.0,95,-99.99,,,-99.99,,2013-08-10 03:11:00,
2013-08-09 22:21:00,69.0,67.0,-100.00,North,5,6.0,9.0,95,-99.99,,,-99.99,,2013-08-10 03:21:00,
2013-08-09 22:32:00,69.0,67.0,-100.00,North,5,6.0,7.0,95,-99.99,,,-99.99,,2013-08-10 03:32:00,
2013-08-09 22:42:00,68.0,66.0,-100.00,North,5,6.0,7.0,94,-99.99,,,-99.99,,2013-08-10 03:42:00,
2013-08-09 22:52:00,68.0,66.0,-100.00,North,5,6.0,7.0,94,-99.99,,,-99.99,,2013-08-10 03:52:00,
2013-08-09 23:12:00,68.0,66.0,-100.00,North,5,5.0,8.0,93,-99.99,,,-99.99,,2013-08-10 04:12:00,
2013-08-09 23:22:00,68.0,66.0,-100.00,North,5,5.0,8.0,93,-99.99,,,-99.99,,2013-08-10 04:22:00,
2013-08-09 23:32:00,68.0,65.0,-100.00,North,5,7.0,9.0,92,-99.99,,,-99.99,,2013-08-10 04:32:00,
2013-08-09 23:43:00,67.0,64.0,-100.00,North,0,9.0,11.0,90,-99.99,,,-99.99,,2013-08-10 04:43:00,
2013-08-09 23:53:00,67.0,64.0,-100.00,North,0,9.0,11.0,90,-99.99,,,-99.99,,2013-08-10 04:53:00,